sensor_id;sensor_type;location;lat;lon;timestamp;temperature;humidity
66144;SHT31;52947;50.842;6.084;2022-08-21T00:01:43;14.46;78.55
66144;SHT31;52947;50.842;6.084;2022-08-21T00:04:12;14.51;78.61
66144;SHT31;52947;50.842;6.084;2022-08-21T00:06:48;14.42;78.70
66144;SHT31;52947;50.842;6.084;2022-08-21T00:09:16;14.41;79.17
66144;SHT31;52947;50.842;6.084;2022-08-21T00:11:44;14.51;78.90
66144;SHT31;52947;50.842;6.084;2022-08-21T00:14:14;14.44;78.65
66144;SHT31;52947;50.842;6.084;2022-08-21T00:16:42;14.32;78.50
66144;SHT31;52947;50.842;6.084;2022-08-21T00:19:11;14.32;79.50
66144;SHT31;52947;50.842;6.084;2022-08-21T00:21:39;14.34;78.78
66144;SHT31;52947;50.842;6.084;2022-08-21T00:24:10;14.21;78.85
66144;SHT31;52947;50.842;6.084;2022-08-21T00:26:38;14.10;79.21
66144;SHT31;52947;50.842;6.084;2022-08-21T00:29:06;13.97;79.64
66144;SHT31;52947;50.842;6.084;2022-08-21T00:31:34;13.83;80.24
66144;SHT31;52947;50.842;6.084;2022-08-21T00:34:02;13.70;80.65
66144;SHT31;52947;50.842;6.084;2022-08-21T00:36:32;13.63;80.72
66144;SHT31;52947;50.842;6.084;2022-08-21T00:39:00;13.56;81.36
66144;SHT31;52947;50.842;6.084;2022-08-21T00:41:28;13.50;81.63
66144;SHT31;52947;50.842;6.084;2022-08-21T00:44:05;13.46;81.59
66144;SHT31;52947;50.842;6.084;2022-08-21T00:46:34;13.46;81.78
66144;SHT31;52947;50.842;6.084;2022-08-21T00:49:02;13.40;81.78
66144;SHT31;52947;50.842;6.084;2022-08-21T00:51:35;13.42;82.13
66144;SHT31;52947;50.842;6.084;2022-08-21T00:54:06;13.38;82.17
66144;SHT31;52947;50.842;6.084;2022-08-21T00:56:46;13.38;82.22
66144;SHT31;52947;50.842;6.084;2022-08-21T00:59:17;13.33;81.85
66144;SHT31;52947;50.842;6.084;2022-08-21T01:01:45;13.26;81.70
66144;SHT31;52947;50.842;6.084;2022-08-21T01:04:13;13.25;82.40
66144;SHT31;52947;50.842;6.084;2022-08-21T01:06:43;13.22;82.39
66144;SHT31;52947;50.842;6.084;2022-08-21T01:09:13;13.22;82.99
66144;SHT31;52947;50.842;6.084;2022-08-21T01:11:42;13.20;82.69
66144;SHT31;52947;50.842;6.084;2022-08-21T01:14:11;13.26;82.81
66144;SHT31;52947;50.842;6.084;2022-08-21T01:16:40;13.29;82.51
66144;SHT31;52947;50.842;6.084;2022-08-21T01:19:10;13.27;82.15
66144;SHT31;52947;50.842;6.084;2022-08-21T01:21:40;13.19;81.84
66144;SHT31;52947;50.842;6.084;2022-08-21T01:24:10;13.15;82.38
66144;SHT31;52947;50.842;6.084;2022-08-21T01:26:39;13.06;82.48
66144;SHT31;52947;50.842;6.084;2022-08-21T01:29:23;13.05;82.78
66144;SHT31;52947;50.842;6.084;2022-08-21T01:31:54;13.02;82.88
66144;SHT31;52947;50.842;6.084;2022-08-21T01:34:22;13.01;82.78
66144;SHT31;52947;50.842;6.084;2022-08-21T01:36:51;12.99;82.75
66144;SHT31;52947;50.842;6.084;2022-08-21T01:39:19;12.99;82.64
66144;SHT31;52947;50.842;6.084;2022-08-21T01:41:47;13.01;82.66
66144;SHT31;52947;50.842;6.084;2022-08-21T01:44:15;12.96;82.30
66144;SHT31;52947;50.842;6.084;2022-08-21T01:46:43;12.91;82.50
66144;SHT31;52947;50.842;6.084;2022-08-21T01:49:11;12.98;82.99
66144;SHT31;52947;50.842;6.084;2022-08-21T01:51:39;13.06;82.62
66144;SHT31;52947;50.842;6.084;2022-08-21T01:54:08;13.11;82.25
66144;SHT31;52947;50.842;6.084;2022-08-21T01:56:38;12.99;82.26
66144;SHT31;52947;50.842;6.084;2022-08-21T01:59:07;12.92;82.92
66144;SHT31;52947;50.842;6.084;2022-08-21T02:01:35;12.85;82.89
66144;SHT31;52947;50.842;6.084;2022-08-21T02:04:03;12.94;83.11
66144;SHT31;52947;50.842;6.084;2022-08-21T02:06:32;13.09;82.47
66144;SHT31;52947;50.842;6.084;2022-08-21T02:09:01;13.05;82.50
66144;SHT31;52947;50.842;6.084;2022-08-21T02:11:30;13.05;83.04
66144;SHT31;52947;50.842;6.084;2022-08-21T02:13:58;13.18;82.79
66144;SHT31;52947;50.842;6.084;2022-08-21T02:16:26;13.29;82.42
66144;SHT31;52947;50.842;6.084;2022-08-21T02:18:58;13.26;82.07
66144;SHT31;52947;50.842;6.084;2022-08-21T02:21:26;13.39;81.40
66144;SHT31;52947;50.842;6.084;2022-08-21T02:23:54;13.52;80.56
66144;SHT31;52947;50.842;6.084;2022-08-21T02:26:22;13.59;80.31
66144;SHT31;52947;50.842;6.084;2022-08-21T02:28:51;13.57;80.24
66144;SHT31;52947;50.842;6.084;2022-08-21T02:31:19;13.56;80.07
66144;SHT31;52947;50.842;6.084;2022-08-21T02:33:47;13.56;80.17
66144;SHT31;52947;50.842;6.084;2022-08-21T02:36:15;13.43;80.41
66144;SHT31;52947;50.842;6.084;2022-08-21T02:38:44;13.33;80.72
66144;SHT31;52947;50.842;6.084;2022-08-21T02:41:15;13.27;80.78
66144;SHT31;52947;50.842;6.084;2022-08-21T02:43:43;13.38;80.52
66144;SHT31;52947;50.842;6.084;2022-08-21T02:46:16;13.47;80.29
66144;SHT31;52947;50.842;6.084;2022-08-21T02:48:45;13.45;80.13
66144;SHT31;52947;50.842;6.084;2022-08-21T02:51:16;13.42;80.14
66144;SHT31;52947;50.842;6.084;2022-08-21T02:53:45;13.40;80.31
66144;SHT31;52947;50.842;6.084;2022-08-21T02:56:15;13.47;80.08
66144;SHT31;52947;50.842;6.084;2022-08-21T02:58:45;13.56;79.58
66144;SHT31;52947;50.842;6.084;2022-08-21T03:01:15;13.50;79.54
66144;SHT31;52947;50.842;6.084;2022-08-21T03:03:45;13.57;79.41
66144;SHT31;52947;50.842;6.084;2022-08-21T03:06:17;13.66;78.92
66144;SHT31;52947;50.842;6.084;2022-08-21T03:08:46;13.74;78.72
66144;SHT31;52947;50.842;6.084;2022-08-21T03:11:14;13.74;78.71
66144;SHT31;52947;50.842;6.084;2022-08-21T03:13:42;13.73;78.66
66144;SHT31;52947;50.842;6.084;2022-08-21T03:16:10;13.62;79.04
66144;SHT31;52947;50.842;6.084;2022-08-21T03:18:39;13.70;78.85
66144;SHT31;52947;50.842;6.084;2022-08-21T03:21:07;13.76;78.41
66144;SHT31;52947;50.842;6.084;2022-08-21T03:23:35;13.88;78.08
66144;SHT31;52947;50.842;6.084;2022-08-21T03:26:04;14.03;77.59
66144;SHT31;52947;50.842;6.084;2022-08-21T03:28:33;14.10;77.18
66144;SHT31;52947;50.842;6.084;2022-08-21T03:31:01;13.98;77.47
66144;SHT31;52947;50.842;6.084;2022-08-21T03:33:29;13.91;77.49
66144;SHT31;52947;50.842;6.084;2022-08-21T03:36:01;13.87;77.88
66144;SHT31;52947;50.842;6.084;2022-08-21T03:38:31;13.93;77.74
66144;SHT31;52947;50.842;6.084;2022-08-21T03:40:59;13.91;77.90
66144;SHT31;52947;50.842;6.084;2022-08-21T03:43:28;13.83;78.23
66144;SHT31;52947;50.842;6.084;2022-08-21T03:45:58;13.74;78.25
66144;SHT31;52947;50.842;6.084;2022-08-21T03:48:26;13.73;78.76
66144;SHT31;52947;50.842;6.084;2022-08-21T03:50:54;13.73;78.45
66144;SHT31;52947;50.842;6.084;2022-08-21T03:53:24;13.83;78.21
66144;SHT31;52947;50.842;6.084;2022-08-21T03:55:52;13.84;78.10
66144;SHT31;52947;50.842;6.084;2022-08-21T03:58:22;13.83;78.30
66144;SHT31;52947;50.842;6.084;2022-08-21T04:00:53;13.88;78.19
66144;SHT31;52947;50.842;6.084;2022-08-21T04:03:22;13.94;77.88
66144;SHT31;52947;50.842;6.084;2022-08-21T04:05:50;14.05;77.37
66144;SHT31;52947;50.842;6.084;2022-08-21T04:08:19;14.00;77.49
66144;SHT31;52947;50.842;6.084;2022-08-21T04:10:50;13.84;78.04
66144;SHT31;52947;50.842;6.084;2022-08-21T04:13:19;13.86;78.11
66144;SHT31;52947;50.842;6.084;2022-08-21T04:15:47;13.87;78.10
66144;SHT31;52947;50.842;6.084;2022-08-21T04:18:16;13.80;78.35
66144;SHT31;52947;50.842;6.084;2022-08-21T04:20:45;13.88;78.62
66144;SHT31;52947;50.842;6.084;2022-08-21T04:23:16;13.80;78.99
66144;SHT31;52947;50.842;6.084;2022-08-21T04:25:51;14.03;79.69
66144;SHT31;52947;50.842;6.084;2022-08-21T04:28:20;14.17;77.69
66144;SHT31;52947;50.842;6.084;2022-08-21T04:30:49;14.17;77.27
66144;SHT31;52947;50.842;6.084;2022-08-21T04:33:18;14.24;77.82
66144;SHT31;52947;50.842;6.084;2022-08-21T04:35:46;14.22;77.05
66144;SHT31;52947;50.842;6.084;2022-08-21T04:38:14;14.26;77.09
66144;SHT31;52947;50.842;6.084;2022-08-21T04:40:42;14.31;76.73
66144;SHT31;52947;50.842;6.084;2022-08-21T04:43:12;14.41;76.34
66144;SHT31;52947;50.842;6.084;2022-08-21T04:45:40;14.41;76.28
66144;SHT31;52947;50.842;6.084;2022-08-21T04:48:10;14.44;76.45
66144;SHT31;52947;50.842;6.084;2022-08-21T04:50:43;14.38;76.30
66144;SHT31;52947;50.842;6.084;2022-08-21T04:53:16;14.34;76.64
66144;SHT31;52947;50.842;6.084;2022-08-21T04:55:44;14.38;76.88
66144;SHT31;52947;50.842;6.084;2022-08-21T04:58:16;14.35;77.43
66144;SHT31;52947;50.842;6.084;2022-08-21T05:00:46;14.38;77.25
66144;SHT31;52947;50.842;6.084;2022-08-21T05:03:16;14.48;76.71
66144;SHT31;52947;50.842;6.084;2022-08-21T05:05:45;14.45;76.48
66144;SHT31;52947;50.842;6.084;2022-08-21T05:08:16;14.55;76.27
66144;SHT31;52947;50.842;6.084;2022-08-21T05:10:46;14.62;76.34
66144;SHT31;52947;50.842;6.084;2022-08-21T05:13:15;14.64;75.88
66144;SHT31;52947;50.842;6.084;2022-08-21T05:15:44;14.65;76.02
66144;SHT31;52947;50.842;6.084;2022-08-21T05:18:14;14.66;76.67
66144;SHT31;52947;50.842;6.084;2022-08-21T05:20:43;14.66;76.11
66144;SHT31;52947;50.842;6.084;2022-08-21T05:23:12;14.72;75.96
66144;SHT31;52947;50.842;6.084;2022-08-21T05:25:41;14.76;76.12
66144;SHT31;52947;50.842;6.084;2022-08-21T05:28:10;14.76;75.83
66144;SHT31;52947;50.842;6.084;2022-08-21T05:30:40;14.86;75.34
66144;SHT31;52947;50.842;6.084;2022-08-21T05:33:07;15.03;75.60
66144;SHT31;52947;50.842;6.084;2022-08-21T05:35:37;15.28;75.05
66144;SHT31;52947;50.842;6.084;2022-08-21T05:38:05;15.46;73.97
66144;SHT31;52947;50.842;6.084;2022-08-21T05:40:44;15.71;73.07
66144;SHT31;52947;50.842;6.084;2022-08-21T05:43:12;15.95;72.56
66144;SHT31;52947;50.842;6.084;2022-08-21T05:45:42;16.15;70.88
66144;SHT31;52947;50.842;6.084;2022-08-21T05:48:12;16.76;69.71
66144;SHT31;52947;50.842;6.084;2022-08-21T05:50:41;17.52;67.34
66144;SHT31;52947;50.842;6.084;2022-08-21T05:53:09;18.34;65.35
66144;SHT31;52947;50.842;6.084;2022-08-21T05:55:38;19.06;62.84
66144;SHT31;52947;50.842;6.084;2022-08-21T05:58:12;19.71;61.34
66144;SHT31;52947;50.842;6.084;2022-08-21T06:00:42;20.46;59.53
66144;SHT31;52947;50.842;6.084;2022-08-21T06:03:11;21.24;57.45
66144;SHT31;52947;50.842;6.084;2022-08-21T06:05:39;21.77;56.37
66144;SHT31;52947;50.842;6.084;2022-08-21T06:08:07;22.28;54.91
66144;SHT31;52947;50.842;6.084;2022-08-21T06:10:35;22.97;53.75
66144;SHT31;52947;50.842;6.084;2022-08-21T06:13:03;23.24;52.50
66144;SHT31;52947;50.842;6.084;2022-08-21T06:15:32;24.46;51.58
66144;SHT31;52947;50.842;6.084;2022-08-21T06:18:01;25.08;49.10
66144;SHT31;52947;50.842;6.084;2022-08-21T06:20:29;26.11;47.76
66144;SHT31;52947;50.842;6.084;2022-08-21T06:22:58;27.19;46.55
66144;SHT31;52947;50.842;6.084;2022-08-21T06:25:26;27.61;44.00
66144;SHT31;52947;50.842;6.084;2022-08-21T06:27:59;27.04;45.67
66144;SHT31;52947;50.842;6.084;2022-08-21T06:30:27;27.43;45.03
66144;SHT31;52947;50.842;6.084;2022-08-21T06:32:55;27.44;44.31
66144;SHT31;52947;50.842;6.084;2022-08-21T06:35:25;27.78;44.15
66144;SHT31;52947;50.842;6.084;2022-08-21T06:37:55;28.90;41.49
66144;SHT31;52947;50.842;6.084;2022-08-21T06:40:23;29.71;40.04
66144;SHT31;52947;50.842;6.084;2022-08-21T06:42:54;29.61;40.46
66144;SHT31;52947;50.842;6.084;2022-08-21T06:45:23;30.02;40.48
66144;SHT31;52947;50.842;6.084;2022-08-21T06:47:57;29.38;39.98
66144;SHT31;52947;50.842;6.084;2022-08-21T06:50:27;29.45;39.21
66144;SHT31;52947;50.842;6.084;2022-08-21T06:53:01;28.64;40.88
66144;SHT31;52947;50.842;6.084;2022-08-21T06:55:29;28.48;41.65
66144;SHT31;52947;50.842;6.084;2022-08-21T06:57:58;29.08;41.03
66144;SHT31;52947;50.842;6.084;2022-08-21T07:00:26;29.31;39.87
66144;SHT31;52947;50.842;6.084;2022-08-21T07:02:54;28.86;40.73
66144;SHT31;52947;50.842;6.084;2022-08-21T07:05:24;29.32;40.17
66144;SHT31;52947;50.842;6.084;2022-08-21T07:07:54;29.51;40.93
66144;SHT31;52947;50.842;6.084;2022-08-21T07:10:23;29.75;39.73
66144;SHT31;52947;50.842;6.084;2022-08-21T07:12:52;29.35;40.14
66144;SHT31;52947;50.842;6.084;2022-08-21T07:15:28;30.32;39.30
66144;SHT31;52947;50.842;6.084;2022-08-21T07:17:57;30.26;38.35
66144;SHT31;52947;50.842;6.084;2022-08-21T07:20:25;30.67;37.95
66144;SHT31;52947;50.842;6.084;2022-08-21T07:22:55;30.37;38.28
66144;SHT31;52947;50.842;6.084;2022-08-21T07:25:24;30.98;38.29
66144;SHT31;52947;50.842;6.084;2022-08-21T07:27:52;31.46;37.09
66144;SHT31;52947;50.842;6.084;2022-08-21T07:30:20;32.19;36.11
66144;SHT31;52947;50.842;6.084;2022-08-21T07:32:48;32.26;34.99
66144;SHT31;52947;50.842;6.084;2022-08-21T07:35:16;31.15;36.80
66144;SHT31;52947;50.842;6.084;2022-08-21T07:37:44;31.10;37.77
66144;SHT31;52947;50.842;6.084;2022-08-21T07:40:14;32.43;35.51
66144;SHT31;52947;50.842;6.084;2022-08-21T07:42:45;33.15;34.82
66144;SHT31;52947;50.842;6.084;2022-08-21T07:45:14;33.22;34.09
66144;SHT31;52947;50.842;6.084;2022-08-21T07:47:42;32.84;35.33
66144;SHT31;52947;50.842;6.084;2022-08-21T07:50:11;32.95;34.62
66144;SHT31;52947;50.842;6.084;2022-08-21T07:52:39;33.05;34.64
66144;SHT31;52947;50.842;6.084;2022-08-21T07:55:07;33.35;34.27
66144;SHT31;52947;50.842;6.084;2022-08-21T07:57:36;33.22;34.37
66144;SHT31;52947;50.842;6.084;2022-08-21T08:00:07;33.08;34.41
66144;SHT31;52947;50.842;6.084;2022-08-21T08:02:39;32.92;34.54
66144;SHT31;52947;50.842;6.084;2022-08-21T08:05:09;32.28;35.72
66144;SHT31;52947;50.842;6.084;2022-08-21T08:07:38;33.43;34.62
66144;SHT31;52947;50.842;6.084;2022-08-21T08:10:07;33.15;33.91
66144;SHT31;52947;50.842;6.084;2022-08-21T08:12:39;33.09;34.17
66144;SHT31;52947;50.842;6.084;2022-08-21T08:15:11;32.64;35.11
66144;SHT31;52947;50.842;6.084;2022-08-21T08:17:39;32.75;35.11
66144;SHT31;52947;50.842;6.084;2022-08-21T08:20:08;32.03;35.63
66144;SHT31;52947;50.842;6.084;2022-08-21T08:22:38;31.82;35.78
66144;SHT31;52947;50.842;6.084;2022-08-21T08:25:07;32.43;35.70
66144;SHT31;52947;50.842;6.084;2022-08-21T08:27:37;31.59;37.12
66144;SHT31;52947;50.842;6.084;2022-08-21T08:30:07;32.13;35.22
66144;SHT31;52947;50.842;6.084;2022-08-21T08:32:35;31.52;36.85
66144;SHT31;52947;50.842;6.084;2022-08-21T08:35:04;31.82;36.31
66144;SHT31;52947;50.842;6.084;2022-08-21T08:37:33;31.46;36.15
66144;SHT31;52947;50.842;6.084;2022-08-21T08:40:09;31.63;36.41
66144;SHT31;52947;50.842;6.084;2022-08-21T08:42:39;32.24;36.11
66144;SHT31;52947;50.842;6.084;2022-08-21T08:45:10;32.53;35.41
66144;SHT31;52947;50.842;6.084;2022-08-21T08:47:40;31.66;35.68
66144;SHT31;52947;50.842;6.084;2022-08-21T08:50:12;31.86;35.96
66144;SHT31;52947;50.842;6.084;2022-08-21T08:52:46;31.94;36.23
66144;SHT31;52947;50.842;6.084;2022-08-21T08:55:17;32.47;34.94
66144;SHT31;52947;50.842;6.084;2022-08-21T08:57:55;32.96;34.79
66144;SHT31;52947;50.842;6.084;2022-08-21T09:00:23;34.18;33.74
66144;SHT31;52947;50.842;6.084;2022-08-21T09:02:53;33.19;33.81
66144;SHT31;52947;50.842;6.084;2022-08-21T09:05:25;33.86;33.97
66144;SHT31;52947;50.842;6.084;2022-08-21T09:08:24;33.53;33.50
66144;SHT31;52947;50.842;6.084;2022-08-21T09:11:01;34.18;32.90
66144;SHT31;52947;50.842;6.084;2022-08-21T09:13:39;33.74;33.82
66144;SHT31;52947;50.842;6.084;2022-08-21T09:16:13;32.61;34.80
66144;SHT31;52947;50.842;6.084;2022-08-21T09:18:57;32.94;34.93
66144;SHT31;52947;50.842;6.084;2022-08-21T09:21:35;31.38;36.52
66144;SHT31;52947;50.842;6.084;2022-08-21T09:24:18;31.72;36.23
66144;SHT31;52947;50.842;6.084;2022-08-21T09:26:54;31.86;36.21
66144;SHT31;52947;50.842;6.084;2022-08-21T09:29:29;32.48;35.50
66144;SHT31;52947;50.842;6.084;2022-08-21T09:31:58;32.58;34.77
66144;SHT31;52947;50.842;6.084;2022-08-21T09:34:28;32.53;35.53
66144;SHT31;52947;50.842;6.084;2022-08-21T09:36:57;33.19;34.80
66144;SHT31;52947;50.842;6.084;2022-08-21T09:39:27;32.68;36.31
66144;SHT31;52947;50.842;6.084;2022-08-21T09:41:57;32.33;35.67
66144;SHT31;52947;50.842;6.084;2022-08-21T09:44:28;31.08;37.49
66144;SHT31;52947;50.842;6.084;2022-08-21T09:46:56;30.52;38.59
66144;SHT31;52947;50.842;6.084;2022-08-21T09:49:28;29.99;39.10
66144;SHT31;52947;50.842;6.084;2022-08-21T09:51:57;29.92;39.87
66144;SHT31;52947;50.842;6.084;2022-08-21T09:54:29;28.69;41.65
66144;SHT31;52947;50.842;6.084;2022-08-21T09:57:00;28.53;41.98
66144;SHT31;52947;50.842;6.084;2022-08-21T09:59:47;29.11;40.54
66144;SHT31;52947;50.842;6.084;2022-08-21T10:02:26;29.21;41.11
66144;SHT31;52947;50.842;6.084;2022-08-21T10:04:55;28.66;40.93
66144;SHT31;52947;50.842;6.084;2022-08-21T10:07:25;29.07;40.61
66144;SHT31;52947;50.842;6.084;2022-08-21T10:10:03;29.37;39.93
66144;SHT31;52947;50.842;6.084;2022-08-21T10:12:40;29.89;39.66
66144;SHT31;52947;50.842;6.084;2022-08-21T10:15:18;29.78;39.89
66144;SHT31;52947;50.842;6.084;2022-08-21T10:17:54;30.37;38.63
66144;SHT31;52947;50.842;6.084;2022-08-21T10:20:29;30.44;38.40
66144;SHT31;52947;50.842;6.084;2022-08-21T10:23:06;29.99;38.70
66144;SHT31;52947;50.842;6.084;2022-08-21T10:25:41;29.82;38.99
66144;SHT31;52947;50.842;6.084;2022-08-21T10:28:37;30.05;38.07
66144;SHT31;52947;50.842;6.084;2022-08-21T10:31:14;30.03;38.73
66144;SHT31;52947;50.842;6.084;2022-08-21T10:33:55;30.26;38.87
66144;SHT31;52947;50.842;6.084;2022-08-21T10:36:32;29.62;38.37
66144;SHT31;52947;50.842;6.084;2022-08-21T10:39:13;30.40;37.53
66144;SHT31;52947;50.842;6.084;2022-08-21T10:42:22;30.67;37.92
66144;SHT31;52947;50.842;6.084;2022-08-21T10:45:03;31.18;37.47
66144;SHT31;52947;50.842;6.084;2022-08-21T10:47:43;31.83;36.98
66144;SHT31;52947;50.842;6.084;2022-08-21T10:50:30;31.79;36.05
66144;SHT31;52947;50.842;6.084;2022-08-21T10:53:07;31.53;36.70
66144;SHT31;52947;50.842;6.084;2022-08-21T10:55:42;31.28;37.20
66144;SHT31;52947;50.842;6.084;2022-08-21T10:58:14;31.01;37.18
66144;SHT31;52947;50.842;6.084;2022-08-21T11:00:48;31.18;37.18
66144;SHT31;52947;50.842;6.084;2022-08-21T11:03:24;31.38;36.79
66144;SHT31;52947;50.842;6.084;2022-08-21T11:05:59;31.46;35.46
66144;SHT31;52947;50.842;6.084;2022-08-21T11:08:29;31.59;35.14
66144;SHT31;52947;50.842;6.084;2022-08-21T11:11:02;31.89;36.13
66144;SHT31;52947;50.842;6.084;2022-08-21T11:13:38;31.45;37.15
66144;SHT31;52947;50.842;6.084;2022-08-21T11:16:14;31.38;36.82
66144;SHT31;52947;50.842;6.084;2022-08-21T11:18:47;30.85;37.16
66144;SHT31;52947;50.842;6.084;2022-08-21T11:21:30;30.54;37.98
66144;SHT31;52947;50.842;6.084;2022-08-21T11:24:03;30.70;38.03
66144;SHT31;52947;50.842;6.084;2022-08-21T11:26:41;31.04;37.75
66144;SHT31;52947;50.842;6.084;2022-08-21T11:29:16;30.61;37.87
66144;SHT31;52947;50.842;6.084;2022-08-21T11:31:56;30.16;38.71
66144;SHT31;52947;50.842;6.084;2022-08-21T11:34:38;30.70;38.10
66144;SHT31;52947;50.842;6.084;2022-08-21T11:37:15;30.54;37.77
66144;SHT31;52947;50.842;6.084;2022-08-21T11:39:55;30.01;38.27
66144;SHT31;52947;50.842;6.084;2022-08-21T11:42:33;29.61;38.41
66144;SHT31;52947;50.842;6.084;2022-08-21T11:45:14;28.59;40.24
66144;SHT31;52947;50.842;6.084;2022-08-21T11:47:54;27.92;42.46
66144;SHT31;52947;50.842;6.084;2022-08-21T11:50:27;27.70;41.85
66144;SHT31;52947;50.842;6.084;2022-08-21T11:53:07;28.18;41.70
66144;SHT31;52947;50.842;6.084;2022-08-21T11:55:40;28.52;41.69
66144;SHT31;52947;50.842;6.084;2022-08-21T11:58:14;28.62;40.16
66144;SHT31;52947;50.842;6.084;2022-08-21T12:00:47;28.02;40.84
66144;SHT31;52947;50.842;6.084;2022-08-21T12:03:17;27.88;40.21
66144;SHT31;52947;50.842;6.084;2022-08-21T12:05:56;28.05;40.53
66144;SHT31;52947;50.842;6.084;2022-08-21T12:08:28;28.63;39.99
66144;SHT31;52947;50.842;6.084;2022-08-21T12:11:01;29.79;38.99
66144;SHT31;52947;50.842;6.084;2022-08-21T12:13:31;30.44;38.11
66144;SHT31;52947;50.842;6.084;2022-08-21T12:16:11;31.08;36.92
66144;SHT31;52947;50.842;6.084;2022-08-21T12:18:41;30.48;37.47
66144;SHT31;52947;50.842;6.084;2022-08-21T12:21:25;30.48;36.92
66144;SHT31;52947;50.842;6.084;2022-08-21T12:24:02;31.43;37.18
66144;SHT31;52947;50.842;6.084;2022-08-21T12:26:33;31.86;36.48
66144;SHT31;52947;50.842;6.084;2022-08-21T12:29:13;31.25;36.52
66144;SHT31;52947;50.842;6.084;2022-08-21T12:31:50;32.16;35.85
66144;SHT31;52947;50.842;6.084;2022-08-21T12:34:20;31.42;36.32
66144;SHT31;52947;50.842;6.084;2022-08-21T12:36:54;31.08;36.63
66144;SHT31;52947;50.842;6.084;2022-08-21T12:39:27;30.92;36.39
66144;SHT31;52947;50.842;6.084;2022-08-21T12:41:59;30.81;37.54
66144;SHT31;52947;50.842;6.084;2022-08-21T12:44:35;30.32;38.19
66144;SHT31;52947;50.842;6.084;2022-08-21T12:47:11;30.12;37.96
66144;SHT31;52947;50.842;6.084;2022-08-21T12:49:49;29.64;38.69
66144;SHT31;52947;50.842;6.084;2022-08-21T12:52:22;29.64;37.86
66144;SHT31;52947;50.842;6.084;2022-08-21T12:54:50;29.69;38.59
66144;SHT31;52947;50.842;6.084;2022-08-21T12:57:20;29.20;37.80
66144;SHT31;52947;50.842;6.084;2022-08-21T12:59:53;29.25;39.14
66144;SHT31;52947;50.842;6.084;2022-08-21T13:02:25;29.11;39.32
66144;SHT31;52947;50.842;6.084;2022-08-21T13:04:54;29.34;38.07
66144;SHT31;52947;50.842;6.084;2022-08-21T13:07:28;29.23;38.53
66144;SHT31;52947;50.842;6.084;2022-08-21T13:10:00;29.18;38.18
66144;SHT31;52947;50.842;6.084;2022-08-21T13:12:29;29.54;38.29
66144;SHT31;52947;50.842;6.084;2022-08-21T13:15:02;29.31;38.55
66144;SHT31;52947;50.842;6.084;2022-08-21T13:17:36;28.90;39.56
66144;SHT31;52947;50.842;6.084;2022-08-21T13:20:09;28.84;40.09
66144;SHT31;52947;50.842;6.084;2022-08-21T13:22:42;28.83;38.80
66144;SHT31;52947;50.842;6.084;2022-08-21T13:25:12;28.52;39.49
66144;SHT31;52947;50.842;6.084;2022-08-21T13:27:43;28.23;40.65
66144;SHT31;52947;50.842;6.084;2022-08-21T13:30:19;28.19;40.61
66144;SHT31;52947;50.842;6.084;2022-08-21T13:32:54;27.78;41.19
66144;SHT31;52947;50.842;6.084;2022-08-21T13:35:25;27.62;41.14
66144;SHT31;52947;50.842;6.084;2022-08-21T13:37:55;27.47;41.39
66144;SHT31;52947;50.842;6.084;2022-08-21T13:40:26;26.85;42.29
66144;SHT31;52947;50.842;6.084;2022-08-21T13:42:56;26.39;43.10
66144;SHT31;52947;50.842;6.084;2022-08-21T13:45:26;26.30;43.20
66144;SHT31;52947;50.842;6.084;2022-08-21T13:47:54;26.45;43.68
66144;SHT31;52947;50.842;6.084;2022-08-21T13:50:24;26.11;43.26
66144;SHT31;52947;50.842;6.084;2022-08-21T13:53:00;26.16;43.71
66144;SHT31;52947;50.842;6.084;2022-08-21T13:55:37;26.08;44.88
66144;SHT31;52947;50.842;6.084;2022-08-21T13:58:05;26.05;44.51
66144;SHT31;52947;50.842;6.084;2022-08-21T14:00:43;25.89;44.40
66144;SHT31;52947;50.842;6.084;2022-08-21T14:03:29;25.79;45.53
66144;SHT31;52947;50.842;6.084;2022-08-21T14:05:58;25.74;43.90
66144;SHT31;52947;50.842;6.084;2022-08-21T14:08:31;25.70;44.44
66144;SHT31;52947;50.842;6.084;2022-08-21T14:11:03;25.77;45.10
66144;SHT31;52947;50.842;6.084;2022-08-21T14:13:38;25.98;45.03
66144;SHT31;52947;50.842;6.084;2022-08-21T14:16:14;25.94;44.62
66144;SHT31;52947;50.842;6.084;2022-08-21T14:18:45;25.86;44.78
66144;SHT31;52947;50.842;6.084;2022-08-21T14:21:13;26.05;44.52
66144;SHT31;52947;50.842;6.084;2022-08-21T14:24:02;26.00;45.00
66144;SHT31;52947;50.842;6.084;2022-08-21T14:26:32;25.77;44.84
66144;SHT31;52947;50.842;6.084;2022-08-21T14:29:00;25.56;45.22
66144;SHT31;52947;50.842;6.084;2022-08-21T14:31:36;25.60;44.38
66144;SHT31;52947;50.842;6.084;2022-08-21T14:34:10;25.83;44.51
66144;SHT31;52947;50.842;6.084;2022-08-21T14:36:46;25.76;44.19
66144;SHT31;52947;50.842;6.084;2022-08-21T14:39:15;26.00;43.91
66144;SHT31;52947;50.842;6.084;2022-08-21T14:41:44;26.14;44.45
66144;SHT31;52947;50.842;6.084;2022-08-21T14:44:16;26.18;44.13
66144;SHT31;52947;50.842;6.084;2022-08-21T14:46:44;26.08;44.07
66144;SHT31;52947;50.842;6.084;2022-08-21T14:49:23;26.17;43.50
66144;SHT31;52947;50.842;6.084;2022-08-21T14:51:53;26.11;43.34
66144;SHT31;52947;50.842;6.084;2022-08-21T14:54:25;25.94;43.71
66144;SHT31;52947;50.842;6.084;2022-08-21T14:57:00;26.05;42.93
66144;SHT31;52947;50.842;6.084;2022-08-21T14:59:29;26.00;41.97
66144;SHT31;52947;50.842;6.084;2022-08-21T15:01:59;26.01;43.56
66144;SHT31;52947;50.842;6.084;2022-08-21T15:04:27;25.80;40.55
66144;SHT31;52947;50.842;6.084;2022-08-21T15:06:55;25.74;41.91
66144;SHT31;52947;50.842;6.084;2022-08-21T15:09:25;25.70;42.43
66144;SHT31;52947;50.842;6.084;2022-08-21T15:11:56;25.49;42.36
66144;SHT31;52947;50.842;6.084;2022-08-21T15:14:27;25.26;42.40
66144;SHT31;52947;50.842;6.084;2022-08-21T15:16:56;25.07;42.71
66144;SHT31;52947;50.842;6.084;2022-08-21T15:19:24;25.02;41.97
66144;SHT31;52947;50.842;6.084;2022-08-21T15:21:52;24.91;42.51
66144;SHT31;52947;50.842;6.084;2022-08-21T15:24:20;24.74;44.41
66144;SHT31;52947;50.842;6.084;2022-08-21T15:26:50;24.81;43.12
66144;SHT31;52947;50.842;6.084;2022-08-21T15:29:18;24.64;44.32
66144;SHT31;52947;50.842;6.084;2022-08-21T15:31:54;24.74;47.69
66144;SHT31;52947;50.842;6.084;2022-08-21T15:34:23;24.56;43.85
66144;SHT31;52947;50.842;6.084;2022-08-21T15:36:54;24.46;44.02
66144;SHT31;52947;50.842;6.084;2022-08-21T15:39:23;24.65;44.69
66144;SHT31;52947;50.842;6.084;2022-08-21T15:41:58;24.60;44.69
66144;SHT31;52947;50.842;6.084;2022-08-21T15:44:37;24.54;45.32
66144;SHT31;52947;50.842;6.084;2022-08-21T15:47:06;24.61;45.85
66144;SHT31;52947;50.842;6.084;2022-08-21T15:49:33;24.48;45.36
66144;SHT31;52947;50.842;6.084;2022-08-21T15:52:02;24.40;44.51
66144;SHT31;52947;50.842;6.084;2022-08-21T15:54:30;24.38;44.51
66144;SHT31;52947;50.842;6.084;2022-08-21T15:56:59;24.36;44.24